Time;durP1;ratioP1;P1;durP2;ratioP2;P2;SDS_P1;SDS_P2;PMS_P1;PMS_P2;Temp;Humidity;BMP_temperature;BMP_pressure;BME280_temperature;BME280_humidity;BME280_pressure;Samples;Min_cycle;Max_cycle;Signal;HPM_P1;HPM_P2
2023/08/25 00:00:57;;;;;;;15.53;11.83;;;18.30;99.90;;;;;;2063734;28;20288;-67
2023/08/25 00:01:58;;;;;;;11.40;8.87;;;18.30;99.90;;;;;;2065609;28;20464;-66
2023/08/25 00:02:59;;;;;;;12.20;10.73;;;18.30;99.90;;;;;;2062640;28;20284;-66
2023/08/25 00:03:59;;;;;;;16.03;12.50;;;18.20;99.90;;;;;;2069932;28;20285;-66
2023/08/25 00:05:00;;;;;;;10.63;8.40;;;18.30;99.90;;;;;;2070460;28;20244;-67
2023/08/25 00:06:01;;;;;;;15.27;12.10;;;18.30;99.90;;;;;;2063683;28;20233;-66
2023/08/25 00:07:02;;;;;;;19.67;13.50;;;18.30;99.90;;;;;;2062628;28;20226;-67
2023/08/25 00:08:03;;;;;;;13.27;10.67;;;18.30;99.90;;;;;;2063698;28;20992;-66
2023/08/25 00:09:04;;;;;;;12.53;10.57;;;18.30;99.90;;;;;;2062555;28;20635;-67
2023/08/25 00:10:05;;;;;;;9.73;8.80;;;18.40;99.90;;;;;;2062932;28;20428;-66
2023/08/25 00:11:06;;;;;;;14.73;8.63;;;18.40;99.90;;;;;;2061282;28;20225;-67
2023/08/25 00:12:07;;;;;;;11.37;9.77;;;18.40;99.90;;;;;;2061709;28;20519;-67
2023/08/25 00:13:08;;;;;;;9.43;8.47;;;18.40;99.90;;;;;;2062866;28;20284;-67
2023/08/25 00:14:09;;;;;;;11.43;8.97;;;18.40;99.90;;;;;;2071042;28;20215;-67
2023/08/25 00:15:10;;;;;;;20.00;13.30;;;18.40;99.90;;;;;;2058808;28;20190;-67
2023/08/25 00:16:11;;;;;;;9.40;7.67;;;18.40;99.90;;;;;;2063129;28;20806;-65
2023/08/25 00:17:11;;;;;;;16.00;12.10;;;18.40;99.90;;;;;;2062727;28;20197;-67
2023/08/25 00:18:13;;;;;;;10.67;8.13;;;18.40;99.90;;;;;;2062748;28;20230;-67
2023/08/25 00:19:16;;;;;;;14.13;11.03;;;18.30;99.90;;;;;;2061357;28;20913;-67
2023/08/25 00:20:18;;;;;;;11.87;10.10;;;18.20;99.90;;;;;;2062970;28;20189;-67
2023/08/25 00:21:19;;;;;;;16.50;12.73;;;18.20;99.90;;;;;;2063777;28;20847;-66
2023/08/25 00:22:20;;;;;;;15.20;12.63;;;18.20;99.90;;;;;;2064053;28;20428;-66
2023/08/25 00:23:20;;;;;;;9.30;8.30;;;18.20;99.90;;;;;;2062251;28;20186;-66
2023/08/25 00:24:21;;;;;;;11.53;8.80;;;18.20;99.90;;;;;;2054589;28;20247;-66
2023/08/25 00:25:22;;;;;;;11.60;9.07;;;18.20;99.90;;;;;;2062661;28;20242;-67
2023/08/25 00:26:22;;;;;;;12.97;10.47;;;18.20;99.90;;;;;;2062838;28;20230;-67
2023/08/25 00:27:23;;;;;;;8.20;7.40;;;18.20;99.90;;;;;;2062700;28;20738;-66
2023/08/25 00:28:24;;;;;;;9.60;8.50;;;18.20;99.90;;;;;;2062643;28;20257;-67
2023/08/25 00:29:25;;;;;;;13.50;10.77;;;18.10;99.90;;;;;;2062838;28;20824;-66
2023/08/25 00:30:26;;;;;;;13.37;11.00;;;18.00;99.90;;;;;;2063220;28;20284;-67
2023/08/25 00:31:27;;;;;;;11.60;10.37;;;18.00;99.90;;;;;;2062862;28;20218;-66
2023/08/25 00:32:27;;;;;;;12.10;9.70;;;18.10;99.90;;;;;;2054580;28;20461;-67
2023/08/25 00:33:28;;;;;;;13.30;10.07;;;18.10;99.90;;;;;;2062937;28;20237;-66
2023/08/25 00:34:29;;;;;;;15.13;10.23;;;18.20;99.90;;;;;;2063612;28;20301;-67
2023/08/25 00:35:30;;;;;;;12.87;9.67;;;18.20;99.90;;;;;;2054506;28;20694;-66
2023/08/25 00:36:30;;;;;;;16.47;12.43;;;18.30;99.90;;;;;;2055973;28;20257;-67
2023/08/25 00:37:31;;;;;;;12.37;10.80;;;18.30;99.90;;;;;;2071813;28;20216;-66
2023/08/25 00:38:32;;;;;;;10.03;8.60;;;18.40;99.90;;;;;;2071340;28;20776;-66
2023/08/25 00:39:32;;;;;;;12.60;10.10;;;18.40;99.90;;;;;;2063657;28;20218;-67
2023/08/25 00:40:37;;;;;;;12.50;9.70;;;18.30;99.90;;;;;;2062613;28;20284;-66
2023/08/25 00:41:37;;;;;;;13.63;8.83;;;18.30;99.90;;;;;;2062314;28;20706;-67
2023/08/25 00:42:38;;;;;;;11.97;8.13;;;18.30;99.90;;;;;;2060920;28;20558;-66
2023/08/25 00:43:39;;;;;;;16.80;11.30;;;18.20;99.90;;;;;;2062688;28;20226;-66
2023/08/25 00:44:40;;;;;;;15.77;13.13;;;18.30;99.90;;;;;;2062193;28;20226;-66
2023/08/25 00:45:41;;;;;;;12.87;9.97;;;18.20;99.90;;;;;;2062819;28;20471;-67
2023/08/25 00:46:42;;;;;;;14.33;9.90;;;18.20;99.90;;;;;;2054884;28;20227;-66
2023/08/25 00:47:43;;;;;;;13.83;10.73;;;18.10;99.90;;;;;;2062903;28;20498;-67
2023/08/25 00:48:44;;;;;;;15.73;12.10;;;18.10;99.90;;;;;;2062659;28;20992;-66
2023/08/25 00:49:46;;;;;;;16.77;12.43;;;18.10;99.90;;;;;;2062763;28;20255;-66
2023/08/25 00:50:47;;;;;;;13.03;10.17;;;18.10;99.90;;;;;;2061556;28;20857;-67
2023/08/25 00:51:52;;;;;;;13.63;11.20;;;18.10;99.90;;;;;;2046525;28;20477;-66
2023/08/25 00:52:53;;;;;;;22.80;14.73;;;18.10;99.90;;;;;;2056253;28;20461;-66
2023/08/25 00:53:54;;;;;;;15.47;11.60;;;18.10;99.90;;;;;;2063478;28;20497;-67
2023/08/25 00:54:56;;;;;;;17.40;11.87;;;18.00;99.90;;;;;;2054161;28;21311;-67
2023/08/25 00:55:58;;;;;;;14.17;10.80;;;18.00;99.90;;;;;;2055098;28;20226;-67
2023/08/25 00:57:02;;;;;;;12.73;11.33;;;18.00;99.90;;;;;;2062341;28;20551;-66
2023/08/25 00:58:05;;;;;;;16.17;11.50;;;18.10;99.90;;;;;;2050038;28;20486;-67
2023/08/25 00:59:06;;;;;;;14.60;11.60;;;18.10;99.90;;;;;;2052533;28;20416;-66
2023/08/25 01:00:10;;;;;;;12.53;10.07;;;18.00;99.90;;;;;;2046659;28;20480;-67
2023/08/25 01:01:12;;;;;;;16.10;12.57;;;17.90;99.90;;;;;;2040219;28;20216;-67
2023/08/25 01:02:14;;;;;;;9.87;8.83;;;17.90;99.90;;;;;;2062378;28;20995;-66
2023/08/25 01:03:15;;;;;;;9.73;8.83;;;17.90;99.90;;;;;;2062069;28;20428;-67
2023/08/25 01:04:15;;;;;;;12.10;9.47;;;17.90;99.90;;;;;;2064297;28;20415;-67
2023/08/25 01:05:16;;;;;;;9.57;8.40;;;17.90;99.90;;;;;;2060542;28;20182;-66
2023/08/25 01:06:17;;;;;;;10.77;9.60;;;17.90;99.90;;;;;;2070041;28;20217;-67
2023/08/25 01:07:18;;;;;;;13.03;10.90;;;17.90;99.90;;;;;;2061702;28;20193;-66
2023/08/25 01:08:19;;;;;;;10.47;8.83;;;17.90;99.90;;;;;;2053769;28;20289;-67
2023/08/25 01:09:21;;;;;;;12.63;10.43;;;18.00;99.90;;;;;;2065696;28;20284;-66
2023/08/25 01:10:28;;;;;;;11.23;10.10;;;17.90;99.90;;;;;;2061975;28;20603;-66
2023/08/25 01:12:00;;;;;;;15.67;11.27;;;18.00;99.90;;;;;;2061943;28;20468;-67
2023/08/25 01:13:18;;;;;;;12.00;10.60;;;18.10;99.90;;;;;;2058160;28;20471;-66
2023/08/25 01:14:30;;;;;;;10.43;8.17;;;18.10;99.90;;;;;;2050647;28;20464;-66
2023/08/25 01:15:35;;;;;;;13.63;10.00;;;18.20;99.90;;;;;;2059215;28;20470;-66
2023/08/25 01:16:45;;;;;;;15.87;11.13;;;18.20;99.90;;;;;;2061741;28;20464;-66
2023/08/25 01:18:17;;;;;;;12.50;11.07;;;18.30;99.90;;;;;;2059978;28;20983;-67
2023/08/25 01:19:54;;;;;;;8.67;7.83;;;18.30;99.90;;;;;;2058101;28;20455;-66
2023/08/25 01:20:58;;;;;;;11.23;9.67;;;18.40;99.90;;;;;;2050640;28;20500;-67
2023/08/25 01:22:00;;;;;;;13.20;11.03;;;18.40;99.90;;;;;;2045808;28;20470;-67
2023/08/25 01:23:17;;;;;;;12.53;9.67;;;18.40;99.90;;;;;;2054792;28;20457;-66
2023/08/25 01:24:29;;;;;;;13.53;9.93;;;18.30;99.90;;;;;;2062522;28;20487;-67
2023/08/25 01:25:30;;;;;;;15.03;12.03;;;18.30;99.90;;;;;;2061892;28;20462;-66
2023/08/25 01:26:32;;;;;;;13.13;11.20;;;18.20;99.90;;;;;;2061088;28;20456;-64
2023/08/25 01:27:34;;;;;;;12.60;11.30;;;18.20;99.90;;;;;;2062814;28;20452;-66
2023/08/25 01:28:40;;;;;;;13.50;11.60;;;18.20;99.90;;;;;;2058856;28;20451;-67
2023/08/25 01:29:43;;;;;;;12.83;11.47;;;18.30;99.90;;;;;;2061967;28;20463;-66
2023/08/25 01:30:44;;;;;;;11.43;9.63;;;18.30;99.90;;;;;;2061855;28;20553;-65
2023/08/25 01:31:45;;;;;;;10.67;8.60;;;18.30;99.90;;;;;;2063194;28;21161;-66
2023/08/25 01:32:46;;;;;;;10.60;9.23;;;18.30;99.90;;;;;;2063158;28;20560;-67
2023/08/25 01:33:48;;;;;;;15.90;10.63;;;18.30;99.90;;;;;;2061779;28;20288;-66
2023/08/25 01:34:49;;;;;;;10.40;7.33;;;18.20;99.90;;;;;;2053866;28;20471;-66
2023/08/25 01:36:21;;;;;;;9.20;8.37;;;18.30;99.90;;;;;;2062149;28;20485;-66
2023/08/25 01:37:33;;;;;;;14.73;11.47;;;18.30;99.90;;;;;;2052913;28;20242;-65
2023/08/25 01:38:53;;;;;;;16.83;12.43;;;18.20;99.90;;;;;;2055175;28;20844;-67
2023/08/25 01:40:00;;;;;;;11.37;10.00;;;18.20;99.90;;;;;;2059871;28;20519;-66
2023/08/25 01:41:21;;;;;;;15.53;10.30;;;18.20;99.90;;;;;;2052282;28;20468;-66
2023/08/25 01:42:24;;;;;;;13.20;9.43;;;18.30;99.90;;;;;;2058502;28;20614;-67
2023/08/25 01:43:32;;;;;;;11.93;9.67;;;18.30;99.90;;;;;;2061870;28;20468;-66
2023/08/25 01:44:35;;;;;;;10.63;8.90;;;18.30;99.90;;;;;;2054559;28;20457;-66
2023/08/25 01:45:36;;;;;;;9.30;8.40;;;18.30;99.90;;;;;;2054111;28;20460;-66
2023/08/25 01:46:42;;;;;;;9.27;8.03;;;18.30;99.90;;;;;;2062057;28;20467;-66
2023/08/25 01:47:45;;;;;;;9.10;6.83;;;18.40;99.90;;;;;;2062071;28;20218;-66
2023/08/25 01:48:51;;;;;;;8.10;7.40;;;18.40;99.90;;;;;;2058911;28;20848;-66
2023/08/25 01:49:53;;;;;;;8.87;7.87;;;18.40;99.90;;;;;;2061214;28;20468;-67
2023/08/25 01:50:53;;;;;;;7.30;6.60;;;18.40;99.90;;;;;;2067131;28;20459;-67
2023/08/25 01:51:55;;;;;;;8.30;7.43;;;18.50;99.90;;;;;;2046273;28;20537;-67
2023/08/25 01:52:56;;;;;;;10.70;8.07;;;18.50;99.90;;;;;;2046033;28;20230;-67
2023/08/25 01:53:57;;;;;;;11.30;8.10;;;18.50;99.90;;;;;;2046048;28;21057;-67
2023/08/25 01:54:58;;;;;;;10.30;7.97;;;18.40;99.90;;;;;;2044085;28;20546;-67
2023/08/25 01:55:59;;;;;;;6.77;6.07;;;18.30;99.90;;;;;;2060723;28;20280;-67
2023/08/25 01:56:59;;;;;;;8.33;6.27;;;18.30;99.90;;;;;;2062291;28;20305;-66
2023/08/25 01:58:02;;;;;;;8.17;5.57;;;18.30;99.90;;;;;;2062349;28;20365;-66
2023/08/25 01:59:03;;;;;;;6.47;5.87;;;18.30;99.90;;;;;;2061244;28;20223;-68
2023/08/25 02:00:05;;;;;;;8.07;5.60;;;18.20;99.90;;;;;;2061937;28;20416;-66
2023/08/25 02:01:06;;;;;;;6.87;4.57;;;18.30;99.90;;;;;;2061277;28;20998;-64
2023/08/25 02:02:06;;;;;;;5.43;4.93;;;18.20;99.90;;;;;;2053603;28;20449;-66
2023/08/25 02:03:07;;;;;;;5.20;4.60;;;18.30;99.90;;;;;;2048041;28;20183;-67
2023/08/25 02:04:08;;;;;;;6.73;5.33;;;18.20;99.90;;;;;;2055199;28;20694;-66
2023/08/25 02:05:09;;;;;;;7.77;5.83;;;18.10;99.90;;;;;;2062149;28;20420;-66
2023/08/25 02:06:10;;;;;;;5.57;4.80;;;18.10;99.90;;;;;;2061981;28;20186;-66
2023/08/25 02:07:11;;;;;;;7.40;4.83;;;18.00;99.90;;;;;;2053340;28;20187;-65
2023/08/25 02:08:12;;;;;;;7.40;4.90;;;18.00;99.90;;;;;;2046217;28;20425;-66
2023/08/25 02:09:14;;;;;;;6.23;4.97;;;17.90;99.90;;;;;;2048511;28;20191;-65
2023/08/25 02:10:15;;;;;;;6.40;4.33;;;17.90;99.90;;;;;;2048093;28;20426;-67
2023/08/25 02:11:15;;;;;;;5.77;4.33;;;17.90;99.90;;;;;;2061554;28;21166;-66
2023/08/25 02:12:16;;;;;;;5.67;5.07;;;17.80;99.90;;;;;;2069113;28;20189;-66
2023/08/25 02:13:17;;;;;;;9.03;4.50;;;17.80;99.90;;;;;;2069783;28;20228;-65
2023/08/25 02:14:17;;;;;;;5.70;4.53;;;17.80;99.90;;;;;;2065845;28;20564;-66
2023/08/25 02:15:18;;;;;;;6.93;5.30;;;17.80;99.90;;;;;;2069932;28;20292;-66
2023/08/25 02:16:19;;;;;;;8.00;4.70;;;17.80;99.90;;;;;;2060216;28;20194;-67
2023/08/25 02:17:19;;;;;;;5.77;4.00;;;17.80;99.90;;;;;;2049117;28;20251;-66
2023/08/25 02:18:20;;;;;;;5.93;4.57;;;17.80;99.90;;;;;;2048147;28;20227;-66
2023/08/25 02:19:21;;;;;;;5.30;4.23;;;17.80;99.90;;;;;;2061262;28;20223;-65
2023/08/25 02:20:23;;;;;;;6.60;4.57;;;17.80;99.90;;;;;;2056867;28;20237;-66
2023/08/25 02:21:24;;;;;;;6.97;4.67;;;17.80;99.90;;;;;;2051750;28;20227;-67
2023/08/25 02:22:25;;;;;;;5.63;4.93;;;17.70;99.90;;;;;;2053815;28;21281;-66
2023/08/25 02:23:26;;;;;;;8.53;4.70;;;17.70;99.90;;;;;;2054230;28;20404;-66
2023/08/25 02:24:27;;;;;;;6.80;4.53;;;17.80;99.90;;;;;;2061865;28;20281;-66
2023/08/25 02:25:27;;;;;;;5.73;4.10;;;17.80;99.90;;;;;;2058358;28;20450;-66
2023/08/25 02:26:28;;;;;;;4.77;4.17;;;17.90;99.90;;;;;;2060143;28;20248;-66
2023/08/25 02:27:29;;;;;;;6.80;4.97;;;17.90;99.90;;;;;;2053288;28;20243;-67
2023/08/25 02:28:29;;;;;;;6.93;4.70;;;17.90;99.90;;;;;;2061312;28;20218;-66
2023/08/25 02:29:31;;;;;;;5.07;4.37;;;18.00;99.90;;;;;;2061087;28;20222;-66
2023/08/25 02:30:31;;;;;;;9.07;5.87;;;18.10;99.90;;;;;;2061532;28;20257;-65
2023/08/25 02:31:32;;;;;;;10.10;7.97;;;18.10;99.90;;;;;;2061562;28;20476;-65
2023/08/25 02:32:33;;;;;;;9.67;8.67;;;18.20;99.90;;;;;;2053689;28;20728;-66
2023/08/25 02:33:35;;;;;;;7.63;6.73;;;18.20;99.90;;;;;;2053980;28;20218;-66
2023/08/25 02:34:35;;;;;;;12.37;8.20;;;18.20;99.90;;;;;;2061354;28;20558;-67
2023/08/25 02:35:36;;;;;;;11.90;9.63;;;18.30;99.90;;;;;;2062368;28;20456;-66
2023/08/25 02:36:37;;;;;;;13.10;8.90;;;18.30;99.90;;;;;;2061746;28;20229;-67
2023/08/25 02:37:59;;;;;;;10.87;7.60;;;18.30;99.90;;;;;;2062306;28;20220;-66
2023/08/25 02:39:00;;;;;;;13.40;8.77;;;18.30;99.90;;;;;;2061299;28;20232;-66
2023/08/25 02:40:02;;;;;;;8.90;7.67;;;18.20;99.90;;;;;;2061301;28;20456;-65
2023/08/25 02:41:03;;;;;;;10.80;8.80;;;18.30;99.90;;;;;;2061258;28;20222;-67
2023/08/25 02:42:04;;;;;;;9.10;7.93;;;18.30;99.90;;;;;;2055997;28;20425;-66
2023/08/25 02:43:06;;;;;;;8.40;7.50;;;18.30;99.90;;;;;;2047793;28;20219;-66
2023/08/25 02:44:07;;;;;;;9.27;7.93;;;18.30;99.90;;;;;;2051322;28;20257;-64
2023/08/25 02:45:08;;;;;;;10.57;8.23;;;18.30;99.90;;;;;;2052842;28;20487;-66
2023/08/25 02:46:10;;;;;;;17.47;10.87;;;18.30;99.90;;;;;;2054266;28;20187;-67
2023/08/25 02:47:11;;;;;;;10.00;8.20;;;18.30;99.90;;;;;;2059194;28;20206;-66
2023/08/25 02:48:12;;;;;;;11.67;9.43;;;18.20;99.90;;;;;;2069830;28;20427;-66
2023/08/25 02:49:13;;;;;;;10.37;8.77;;;18.20;99.90;;;;;;2063228;28;20432;-66
2023/08/25 02:50:14;;;;;;;9.80;8.67;;;18.10;99.90;;;;;;2072264;28;20267;-66
2023/08/25 02:51:14;;;;;;;11.77;9.97;;;18.10;99.90;;;;;;2073072;28;20259;-66
2023/08/25 02:52:15;;;;;;;12.70;8.40;;;18.00;99.90;;;;;;2065786;28;20257;-66
2023/08/25 02:53:17;;;;;;;10.73;9.40;;;18.10;99.90;;;;;;2066005;28;20214;-66
2023/08/25 02:54:17;;;;;;;11.40;9.13;;;18.10;99.90;;;;;;2065132;28;20799;-64
2023/08/25 02:55:21;;;;;;;11.43;8.70;;;18.10;99.90;;;;;;2064645;28;20201;-67
2023/08/25 02:56:22;;;;;;;12.30;9.13;;;18.10;99.90;;;;;;2065127;28;20769;-65
2023/08/25 02:57:23;;;;;;;8.43;7.53;;;18.10;99.90;;;;;;2056359;28;20512;-67
2023/08/25 02:58:23;;;;;;;10.87;9.27;;;18.10;99.90;;;;;;2064766;28;20675;-67
2023/08/25 02:59:24;;;;;;;8.93;8.03;;;18.10;99.90;;;;;;2056040;28;20235;-67
2023/08/25 03:00:25;;;;;;;9.23;7.03;;;18.10;99.90;;;;;;2048214;28;20315;-67
2023/08/25 03:01:25;;;;;;;7.30;6.57;;;18.10;99.90;;;;;;2055292;28;20242;-64
2023/08/25 03:02:26;;;;;;;7.57;6.80;;;18.00;99.90;;;;;;2064583;28;20760;-66
2023/08/25 03:03:28;;;;;;;9.10;7.47;;;18.00;99.90;;;;;;2061410;28;20238;-66
2023/08/25 03:04:29;;;;;;;9.07;6.70;;;18.10;99.90;;;;;;2057917;28;20280;-66
2023/08/25 03:05:30;;;;;;;8.23;7.00;;;18.10;99.90;;;;;;2061852;28;20464;-66
2023/08/25 03:06:31;;;;;;;13.83;8.13;;;18.10;99.90;;;;;;2065230;28;20226;-66
2023/08/25 03:07:33;;;;;;;8.07;7.27;;;18.00;99.90;;;;;;2063018;28;20261;-66
2023/08/25 03:08:33;;;;;;;10.17;6.63;;;17.90;99.90;;;;;;2062561;28;20350;-67
2023/08/25 03:09:34;;;;;;;8.87;6.83;;;17.80;99.90;;;;;;2062701;28;20473;-66
2023/08/25 03:10:35;;;;;;;7.43;6.07;;;17.70;99.90;;;;;;2063272;28;20226;-66
2023/08/25 03:11:36;;;;;;;7.43;6.47;;;17.80;99.90;;;;;;2063380;28;20474;-63
2023/08/25 03:12:38;;;;;;;8.27;6.10;;;17.80;99.90;;;;;;2062735;28;20222;-66
2023/08/25 03:13:38;;;;;;;10.03;6.47;;;17.70;99.90;;;;;;2062710;28;20778;-66
2023/08/25 03:14:39;;;;;;;7.13;6.43;;;17.70;99.90;;;;;;2054349;28;20457;-66
2023/08/25 03:15:40;;;;;;;7.23;6.23;;;17.70;99.90;;;;;;2062420;28;20319;-66
2023/08/25 03:16:40;;;;;;;8.43;5.73;;;17.70;99.90;;;;;;2062532;28;20329;-66
2023/08/25 03:17:41;;;;;;;6.63;5.07;;;17.70;99.90;;;;;;2062693;28;20250;-67
2023/08/25 03:18:42;;;;;;;7.37;5.17;;;17.80;99.90;;;;;;2060243;28;20218;-66
2023/08/25 03:19:42;;;;;;;5.43;4.93;;;17.70;99.90;;;;;;2063445;28;20657;-66
2023/08/25 03:20:43;;;;;;;7.07;4.93;;;17.70;99.90;;;;;;2067158;28;20279;-66
2023/08/25 03:21:44;;;;;;;7.57;5.10;;;17.70;99.90;;;;;;2066265;28;20256;-67
2023/08/25 03:22:44;;;;;;;5.47;4.97;;;17.70;99.90;;;;;;2065829;28;20562;-66
2023/08/25 03:23:46;;;;;;;6.93;5.03;;;17.60;99.90;;;;;;2065927;28;20225;-66
2023/08/25 03:24:46;;;;;;;6.87;4.60;;;17.60;99.90;;;;;;2058055;28;20230;-66
2023/08/25 03:25:47;;;;;;;8.40;4.23;;;17.70;99.90;;;;;;2057838;28;20502;-66
2023/08/25 03:26:48;;;;;;;4.73;4.33;;;17.70;99.90;;;;;;2054734;28;20761;-66
2023/08/25 03:27:48;;;;;;;6.93;4.97;;;17.70;99.90;;;;;;2063031;28;20225;-67
2023/08/25 03:28:49;;;;;;;7.87;5.00;;;17.70;99.90;;;;;;2062974;28;20225;-66
2023/08/25 03:29:50;;;;;;;5.33;4.00;;;17.60;99.90;;;;;;2063686;28;20297;-66
2023/08/25 03:30:52;;;;;;;7.03;4.73;;;17.60;99.90;;;;;;2062627;28;20230;-65
2023/08/25 03:31:52;;;;;;;7.33;4.70;;;17.60;99.90;;;;;;2054773;28;20219;-66
2023/08/25 03:32:53;;;;;;;4.97;4.57;;;17.60;99.90;;;;;;2061470;28;21000;-66
2023/08/25 03:33:54;;;;;;;5.30;4.60;;;17.50;99.90;;;;;;2063301;28;20222;-66
2023/08/25 03:34:55;;;;;;;6.03;4.90;;;17.50;99.90;;;;;;2062552;28;20313;-65
2023/08/25 03:35:55;;;;;;;7.07;5.17;;;17.60;99.90;;;;;;2062396;28;20222;-65
2023/08/25 03:36:56;;;;;;;7.33;4.87;;;17.60;99.90;;;;;;2062203;28;20233;-66
2023/08/25 03:37:57;;;;;;;5.60;4.80;;;17.60;99.90;;;;;;2063099;28;20604;-65
2023/08/25 03:38:57;;;;;;;5.40;4.80;;;17.60;99.90;;;;;;2063337;28;20222;-66
2023/08/25 03:39:58;;;;;;;8.00;5.00;;;17.60;99.90;;;;;;2063038;28;20218;-66
2023/08/25 03:41:00;;;;;;;5.73;4.83;;;17.60;99.90;;;;;;2061912;28;20229;-66
2023/08/25 03:42:00;;;;;;;7.40;4.90;;;17.60;99.90;;;;;;2062617;28;20220;-65
2023/08/25 03:43:01;;;;;;;7.40;5.73;;;17.60;99.90;;;;;;2063097;28;20495;-69
2023/08/25 03:44:02;;;;;;;7.67;5.00;;;17.60;99.90;;;;;;2063401;28;20202;-64
2023/08/25 03:45:05;;;;;;;5.57;4.90;;;17.60;99.90;;;;;;2063067;28;20443;-66
2023/08/25 03:46:06;;;;;;;6.80;5.33;;;17.60;99.90;;;;;;2062712;28;20229;-65
2023/08/25 03:47:06;;;;;;;7.27;5.17;;;17.60;99.90;;;;;;2054540;28;20810;-63
2023/08/25 03:48:07;;;;;;;6.93;5.70;;;17.60;99.90;;;;;;2054305;28;20245;-66
2023/08/25 03:49:09;;;;;;;7.90;4.83;;;17.60;99.90;;;;;;2062384;28;20270;-65
2023/08/25 03:50:10;;;;;;;6.70;5.40;;;17.70;99.90;;;;;;2063952;28;20199;-66
2023/08/25 03:51:11;;;;;;;6.27;5.20;;;17.70;99.90;;;;;;2070777;28;20454;-65
2023/08/25 03:52:12;;;;;;;5.97;5.27;;;17.70;99.90;;;;;;2059505;28;20210;-66
2023/08/25 03:53:13;;;;;;;9.47;5.60;;;17.70;99.90;;;;;;2050746;28;20290;-66
2023/08/25 03:54:14;;;;;;;7.17;5.30;;;17.70;99.90;;;;;;2042546;28;20203;-66
2023/08/25 03:55:14;;;;;;;6.47;5.10;;;17.80;99.90;;;;;;2053884;28;20475;-65
2023/08/25 03:56:15;;;;;;;7.03;5.67;;;17.80;99.90;;;;;;2062884;28;20194;-66
2023/08/25 03:57:16;;;;;;;6.07;5.40;;;17.70;99.90;;;;;;2062447;28;20604;-65
2023/08/25 03:58:17;;;;;;;9.27;6.43;;;17.70;99.90;;;;;;2062403;28;20210;-65
2023/08/25 03:59:17;;;;;;;11.23;6.50;;;17.70;99.90;;;;;;2060002;28;20259;-66
2023/08/25 04:00:18;;;;;;;6.87;5.43;;;17.90;99.90;;;;;;2053380;28;20221;-66
2023/08/25 04:01:19;;;;;;;7.33;5.80;;;17.90;99.90;;;;;;2063456;28;20272;-65
2023/08/25 04:02:21;;;;;;;6.70;5.73;;;18.00;99.90;;;;;;2062881;28;20197;-66
2023/08/25 04:03:22;;;;;;;6.73;5.97;;;18.00;99.90;;;;;;2054620;28;20235;-65
2023/08/25 04:04:23;;;;;;;7.47;5.30;;;18.00;99.90;;;;;;2052916;28;20480;-65
2023/08/25 04:05:23;;;;;;;10.93;6.13;;;18.00;99.90;;;;;;2054159;28;20468;-66
2023/08/25 04:06:24;;;;;;;6.80;5.27;;;18.00;99.90;;;;;;2054196;28;20227;-66
2023/08/25 04:07:25;;;;;;;6.50;5.03;;;18.00;99.90;;;;;;2054388;28;20222;-65
2023/08/25 04:08:26;;;;;;;6.50;5.63;;;18.10;99.90;;;;;;2062887;28;20234;-65
2023/08/25 04:09:26;;;;;;;7.03;5.63;;;18.00;99.90;;;;;;2062990;28;20237;-66
2023/08/25 04:10:27;;;;;;;8.13;5.97;;;18.00;99.90;;;;;;2062952;28;20222;-65
2023/08/25 04:11:28;;;;;;;8.23;6.47;;;18.10;99.90;;;;;;2063186;28;20236;-66
2023/08/25 04:12:28;;;;;;;8.23;6.37;;;18.20;99.90;;;;;;2057656;28;20281;-66
2023/08/25 04:13:30;;;;;;;8.67;6.80;;;18.20;99.90;;;;;;2063605;28;20592;-66
2023/08/25 04:14:31;;;;;;;6.40;5.80;;;18.30;99.90;;;;;;2062922;28;20229;-65
2023/08/25 04:15:32;;;;;;;6.87;5.20;;;18.40;99.90;;;;;;2062391;28;20539;-66
2023/08/25 04:16:33;;;;;;;6.50;5.27;;;18.30;99.90;;;;;;2062906;28;20226;-64
2023/08/25 04:17:34;;;;;;;6.37;5.27;;;18.30;99.90;;;;;;2063198;28;20464;-66
2023/08/25 04:18:35;;;;;;;8.50;5.77;;;18.20;99.90;;;;;;2063178;28;20732;-64
2023/08/25 04:19:35;;;;;;;7.30;6.60;;;18.20;99.90;;;;;;2063162;28;20471;-66
2023/08/25 04:20:36;;;;;;;10.57;6.27;;;18.10;99.90;;;;;;2062948;28;20309;-66
2023/08/25 04:21:37;;;;;;;11.17;6.93;;;18.10;99.90;;;;;;2064314;28;20319;-66
2023/08/25 04:22:39;;;;;;;8.00;6.90;;;18.20;99.90;;;;;;2064386;28;20307;-66
2023/08/25 04:23:40;;;;;;;11.00;7.77;;;18.30;99.90;;;;;;2064773;28;20230;-65
2023/08/25 04:24:41;;;;;;;10.90;8.07;;;18.30;99.90;;;;;;2062887;28;20456;-69
2023/08/25 04:25:42;;;;;;;9.03;7.70;;;18.30;99.90;;;;;;2062153;28;20463;-66
2023/08/25 04:26:43;;;;;;;10.73;8.33;;;18.30;99.90;;;;;;2062479;28;20351;-66
2023/08/25 04:27:44;;;;;;;8.37;7.43;;;18.30;99.90;;;;;;2069353;28;20455;-67
2023/08/25 04:28:45;;;;;;;10.03;7.03;;;18.30;99.90;;;;;;2057381;28;20504;-66
2023/08/25 04:29:46;;;;;;;10.23;7.50;;;18.30;99.90;;;;;;2062067;28;20305;-65
2023/08/25 04:30:46;;;;;;;14.23;8.67;;;18.30;99.90;;;;;;2069922;28;20650;-66
2023/08/25 04:31:47;;;;;;;11.03;9.17;;;18.30;99.90;;;;;;2069631;28;20485;-66
2023/08/25 04:32:49;;;;;;;8.97;7.53;;;18.30;99.90;;;;;;2062811;28;20677;-66
2023/08/25 04:33:49;;;;;;;9.33;8.10;;;18.40;99.90;;;;;;2062566;28;20301;-65
2023/08/25 04:34:50;;;;;;;8.27;7.17;;;18.20;99.90;;;;;;2062095;28;21189;-66
2023/08/25 04:35:51;;;;;;;9.80;6.83;;;18.30;99.90;;;;;;2062489;28;20236;-66
2023/08/25 04:36:51;;;;;;;8.90;6.53;;;18.20;99.90;;;;;;2062167;28;20226;-66
2023/08/25 04:37:52;;;;;;;8.33;6.40;;;18.20;99.90;;;;;;2061563;28;20226;-66
2023/08/25 04:38:53;;;;;;;8.17;6.30;;;18.20;99.90;;;;;;2061799;28;20228;-66
2023/08/25 04:39:55;;;;;;;7.47;6.43;;;18.10;99.90;;;;;;2063222;28;20612;-66
2023/08/25 04:40:55;;;;;;;10.00;5.97;;;18.00;99.90;;;;;;2061639;28;20288;-66
2023/08/25 04:41:56;;;;;;;8.40;6.13;;;18.00;99.90;;;;;;2062483;28;20838;-66
2023/08/25 04:42:57;;;;;;;8.20;5.80;;;18.00;99.90;;;;;;2062116;28;20252;-66
2023/08/25 04:43:57;;;;;;;7.33;5.23;;;18.00;99.90;;;;;;2061727;28;20218;-65
2023/08/25 04:44:58;;;;;;;7.10;5.70;;;18.00;99.90;;;;;;2061122;28;20309;-66
2023/08/25 04:45:59;;;;;;;7.17;5.87;;;18.00;99.90;;;;;;2062349;28;20901;-66
2023/08/25 04:47:00;;;;;;;5.97;5.30;;;17.90;99.90;;;;;;2061595;28;20467;-66
2023/08/25 04:48:01;;;;;;;8.47;5.80;;;17.90;99.90;;;;;;2061426;28;20325;-65
2023/08/25 04:49:02;;;;;;;7.43;5.00;;;17.90;99.90;;;;;;2061747;28;20226;-67
2023/08/25 04:50:05;;;;;;;5.23;4.73;;;17.80;99.90;;;;;;2061617;28;20190;-66
2023/08/25 04:51:05;;;;;;;5.73;4.37;;;17.80;99.90;;;;;;2062369;28;21155;-66
2023/08/25 04:52:06;;;;;;;5.63;4.60;;;17.80;99.90;;;;;;2063829;28;20482;-66
2023/08/25 04:53:07;;;;;;;5.70;4.43;;;17.80;99.90;;;;;;2064303;28;20261;-66
2023/08/25 04:54:09;;;;;;;4.70;4.30;;;17.80;99.90;;;;;;2064883;28;20187;-66
2023/08/25 04:55:10;;;;;;;6.50;4.50;;;17.80;99.90;;;;;;2074461;28;20438;-66
2023/08/25 04:56:11;;;;;;;7.07;4.73;;;17.90;99.90;;;;;;2072294;28;20917;-67
2023/08/25 04:57:12;;;;;;;6.10;4.13;;;17.90;99.90;;;;;;2062533;28;20182;-66
2023/08/25 04:58:13;;;;;;;5.90;4.50;;;17.90;99.90;;;;;;2064967;28;20875;-66
2023/08/25 04:59:14;;;;;;;5.43;4.40;;;17.90;99.90;;;;;;2062986;28;20187;-67
2023/08/25 05:00:15;;;;;;;5.87;4.27;;;17.90;99.90;;;;;;2062633;28;20436;-66
2023/08/25 05:01:16;;;;;;;6.10;4.30;;;17.90;99.90;;;;;;2062482;28;20318;-66
2023/08/25 05:02:17;;;;;;;6.43;4.30;;;17.90;99.90;;;;;;2063259;28;20195;-66
2023/08/25 05:03:18;;;;;;;4.37;3.90;;;18.00;99.90;;;;;;2071830;28;20186;-65
2023/08/25 05:04:18;;;;;;;5.97;4.20;;;18.00;99.90;;;;;;2062017;28;20824;-66
2023/08/25 05:05:19;;;;;;;6.10;4.20;;;18.00;99.90;;;;;;2061310;28;20190;-66
2023/08/25 05:06:20;;;;;;;5.67;4.10;;;17.90;99.90;;;;;;2053650;28;20290;-64
2023/08/25 05:07:20;;;;;;;5.33;4.60;;;17.90;99.90;;;;;;2050329;28;20203;-66
2023/08/25 05:08:21;;;;;;;7.30;4.47;;;18.00;99.90;;;;;;2062653;28;20237;-67
2023/08/25 05:09:22;;;;;;;5.03;4.23;;;18.00;99.90;;;;;;2062337;28;20237;-67
2023/08/25 05:10:22;;;;;;;7.50;4.97;;;18.00;99.90;;;;;;2052770;28;20235;-66
2023/08/25 05:11:23;;;;;;;8.03;4.20;;;18.10;99.90;;;;;;2053947;28;20854;-66
2023/08/25 05:12:24;;;;;;;5.47;4.37;;;18.10;99.90;;;;;;2062215;28;20233;-65
2023/08/25 05:13:25;;;;;;;5.63;3.80;;;18.20;99.90;;;;;;2062327;28;20472;-66
2023/08/25 05:14:25;;;;;;;5.53;4.27;;;18.20;99.90;;;;;;2053296;28;20322;-66
2023/08/25 05:15:26;;;;;;;5.70;4.60;;;18.20;99.90;;;;;;2053035;28;20238;-66
2023/08/25 05:16:27;;;;;;;6.40;3.90;;;18.30;99.90;;;;;;2067712;28;20725;-66
2023/08/25 05:17:27;;;;;;;5.40;4.50;;;18.30;99.90;;;;;;2067589;28;20271;-67
2023/08/25 05:18:28;;;;;;;6.50;4.43;;;18.40;99.90;;;;;;2053342;28;20270;-66
2023/08/25 05:19:29;;;;;;;6.33;4.67;;;18.40;99.90;;;;;;2053623;28;20827;-66
2023/08/25 05:20:30;;;;;;;6.73;4.00;;;18.50;99.90;;;;;;2061787;28;20230;-67